sensor_id;sensor_type;location;lat;lon;timestamp;P1;durP1;ratioP1;P2;durP2;ratioP2
25715;SDS011;13573;50.936;4.328;2023-06-22T00:00:53;23.87;;;22.67;;
25715;SDS011;13573;50.936;4.328;2023-06-22T00:03:21;23.40;;;22.20;;
25715;SDS011;13573;50.936;4.328;2023-06-22T00:05:49;24.60;;;23.30;;
25715;SDS011;13573;50.936;4.328;2023-06-22T00:08:17;24.33;;;23.07;;
25715;SDS011;13573;50.936;4.328;2023-06-22T00:10:45;24.53;;;23.27;;
25715;SDS011;13573;50.936;4.328;2023-06-22T00:13:12;24.77;;;23.47;;
25715;SDS011;13573;50.936;4.328;2023-06-22T00:15:40;25.10;;;23.80;;
25715;SDS011;13573;50.936;4.328;2023-06-22T00:18:08;28.50;;;26.67;;
25715;SDS011;13573;50.936;4.328;2023-06-22T00:20:35;24.90;;;23.60;;
25715;SDS011;13573;50.936;4.328;2023-06-22T00:23:03;24.30;;;23.07;;
25715;SDS011;13573;50.936;4.328;2023-06-22T00:25:35;24.50;;;23.20;;
25715;SDS011;13573;50.936;4.328;2023-06-22T00:28:03;23.67;;;22.47;;
25715;SDS011;13573;50.936;4.328;2023-06-22T00:30:30;22.20;;;21.10;;
25715;SDS011;13573;50.936;4.328;2023-06-22T00:32:57;23.10;;;21.90;;
25715;SDS011;13573;50.936;4.328;2023-06-22T00:35:25;24.37;;;23.07;;
25715;SDS011;13573;50.936;4.328;2023-06-22T00:37:56;24.70;;;23.40;;
25715;SDS011;13573;50.936;4.328;2023-06-22T00:40:27;24.40;;;23.13;;
25715;SDS011;13573;50.936;4.328;2023-06-22T00:42:54;25.83;;;24.53;;
25715;SDS011;13573;50.936;4.328;2023-06-22T00:45:22;26.07;;;24.67;;
25715;SDS011;13573;50.936;4.328;2023-06-22T00:47:51;23.60;;;22.40;;
25715;SDS011;13573;50.936;4.328;2023-06-22T00:50:20;25.47;;;24.17;;
25715;SDS011;13573;50.936;4.328;2023-06-22T00:52:51;26.53;;;25.13;;
25715;SDS011;13573;50.936;4.328;2023-06-22T00:55:19;24.67;;;23.37;;
25715;SDS011;13573;50.936;4.328;2023-06-22T00:57:47;25.43;;;24.13;;
25715;SDS011;13573;50.936;4.328;2023-06-22T01:00:15;25.63;;;24.33;;
25715;SDS011;13573;50.936;4.328;2023-06-22T01:02:43;26.40;;;25.00;;
25715;SDS011;13573;50.936;4.328;2023-06-22T01:05:14;25.53;;;24.23;;
25715;SDS011;13573;50.936;4.328;2023-06-22T01:07:49;28.40;;;26.90;;
25715;SDS011;13573;50.936;4.328;2023-06-22T01:10:40;27.83;;;26.33;;
25715;SDS011;13573;50.936;4.328;2023-06-22T01:13:16;27.07;;;25.67;;
25715;SDS011;13573;50.936;4.328;2023-06-22T01:15:47;27.23;;;25.83;;
25715;SDS011;13573;50.936;4.328;2023-06-22T01:18:18;26.37;;;24.97;;
25715;SDS011;13573;50.936;4.328;2023-06-22T01:20:49;27.60;;;26.13;;
25715;SDS011;13573;50.936;4.328;2023-06-22T01:23:20;27.67;;;26.17;;
25715;SDS011;13573;50.936;4.328;2023-06-22T01:25:55;28.80;;;27.30;;
25715;SDS011;13573;50.936;4.328;2023-06-22T01:31:04;27.00;;;25.60;;
25715;SDS011;13573;50.936;4.328;2023-06-22T01:33:33;28.47;;;26.97;;
25715;SDS011;13573;50.936;4.328;2023-06-22T01:36:02;29.57;;;27.97;;
25715;SDS011;13573;50.936;4.328;2023-06-22T01:38:30;26.70;;;25.30;;
25715;SDS011;13573;50.936;4.328;2023-06-22T01:40:58;28.13;;;26.63;;
25715;SDS011;13573;50.936;4.328;2023-06-22T01:43:27;27.37;;;25.97;;
25715;SDS011;13573;50.936;4.328;2023-06-22T01:45:55;27.57;;;26.17;;
25715;SDS011;13573;50.936;4.328;2023-06-22T01:48:23;27.03;;;25.63;;
25715;SDS011;13573;50.936;4.328;2023-06-22T01:50:52;23.57;;;22.33;;
25715;SDS011;13573;50.936;4.328;2023-06-22T01:53:21;18.77;;;17.80;;
25715;SDS011;13573;50.936;4.328;2023-06-22T01:55:48;25.53;;;24.17;;
25715;SDS011;13573;50.936;4.328;2023-06-22T01:58:15;18.73;;;17.83;;
25715;SDS011;13573;50.936;4.328;2023-06-22T02:00:48;20.03;;;19.03;;
25715;SDS011;13573;50.936;4.328;2023-06-22T02:03:17;18.80;;;17.87;;
25715;SDS011;13573;50.936;4.328;2023-06-22T02:05:48;18.20;;;17.23;;
25715;SDS011;13573;50.936;4.328;2023-06-22T02:08:21;0.27;;;0.20;;
25715;SDS011;13573;50.936;4.328;2023-06-22T02:10:50;0.10;;;0.10;;
25715;SDS011;13573;50.936;4.328;2023-06-22T02:13:18;17.40;;;2.90;;
25715;SDS011;13573;50.936;4.328;2023-06-22T02:15:46;0.03;;;0.03;;
25715;SDS011;13573;50.936;4.328;2023-06-22T02:18:14;0.83;;;0.77;;
25715;SDS011;13573;50.936;4.328;2023-06-22T02:20:40;1.40;;;1.07;;
25715;SDS011;13573;50.936;4.328;2023-06-22T02:23:07;0.23;;;0.23;;
25715;SDS011;13573;50.936;4.328;2023-06-22T02:25:34;0.00;;;0.00;;
25715;SDS011;13573;50.936;4.328;2023-06-22T02:28:01;0.00;;;0.00;;
25715;SDS011;13573;50.936;4.328;2023-06-22T02:30:28;2.63;;;0.83;;
25715;SDS011;13573;50.936;4.328;2023-06-22T02:32:55;0.40;;;0.40;;
25715;SDS011;13573;50.936;4.328;2023-06-22T02:35:26;0.00;;;0.00;;
25715;SDS011;13573;50.936;4.328;2023-06-22T02:37:58;0.00;;;0.00;;
25715;SDS011;13573;50.936;4.328;2023-06-22T02:40:25;1.63;;;1.53;;
25715;SDS011;13573;50.936;4.328;2023-06-22T02:42:52;0.00;;;0.00;;
25715;SDS011;13573;50.936;4.328;2023-06-22T02:45:19;0.00;;;0.00;;
25715;SDS011;13573;50.936;4.328;2023-06-22T02:47:46;0.23;;;0.23;;
25715;SDS011;13573;50.936;4.328;2023-06-22T02:50:13;0.00;;;0.00;;
25715;SDS011;13573;50.936;4.328;2023-06-22T02:52:40;0.00;;;0.00;;
25715;SDS011;13573;50.936;4.328;2023-06-22T02:55:07;0.13;;;0.13;;
25715;SDS011;13573;50.936;4.328;2023-06-22T02:57:34;0.30;;;0.30;;
25715;SDS011;13573;50.936;4.328;2023-06-22T03:00:02;1.03;;;0.83;;
25715;SDS011;13573;50.936;4.328;2023-06-22T03:02:32;0.13;;;0.10;;
25715;SDS011;13573;50.936;4.328;2023-06-22T03:04:59;0.00;;;0.00;;
25715;SDS011;13573;50.936;4.328;2023-06-22T03:07:26;0.00;;;0.00;;
25715;SDS011;13573;50.936;4.328;2023-06-22T03:09:55;0.00;;;0.00;;
25715;SDS011;13573;50.936;4.328;2023-06-22T03:12:21;0.33;;;0.33;;
25715;SDS011;13573;50.936;4.328;2023-06-22T03:14:48;0.53;;;0.53;;
25715;SDS011;13573;50.936;4.328;2023-06-22T03:17:15;1.47;;;1.37;;
25715;SDS011;13573;50.936;4.328;2023-06-22T03:19:41;0.10;;;0.10;;
25715;SDS011;13573;50.936;4.328;2023-06-22T03:22:08;0.47;;;0.47;;
25715;SDS011;13573;50.936;4.328;2023-06-22T03:24:34;0.30;;;0.30;;
25715;SDS011;13573;50.936;4.328;2023-06-22T03:27:02;0.90;;;0.30;;
25715;SDS011;13573;50.936;4.328;2023-06-22T03:29:31;0.00;;;0.00;;
25715;SDS011;13573;50.936;4.328;2023-06-22T03:31:58;1.67;;;1.57;;
25715;SDS011;13573;50.936;4.328;2023-06-22T03:34:24;0.00;;;0.00;;
25715;SDS011;13573;50.936;4.328;2023-06-22T03:36:51;0.10;;;0.10;;
25715;SDS011;13573;50.936;4.328;2023-06-22T03:39:18;0.13;;;0.10;;
25715;SDS011;13573;50.936;4.328;2023-06-22T03:41:45;0.00;;;0.00;;
25715;SDS011;13573;50.936;4.328;2023-06-22T03:44:12;1.50;;;1.40;;
25715;SDS011;13573;50.936;4.328;2023-06-22T03:46:39;1.13;;;0.80;;
25715;SDS011;13573;50.936;4.328;2023-06-22T03:49:05;0.13;;;0.10;;
25715;SDS011;13573;50.936;4.328;2023-06-22T03:51:32;0.10;;;0.10;;
25715;SDS011;13573;50.936;4.328;2023-06-22T03:53:59;0.23;;;0.17;;
25715;SDS011;13573;50.936;4.328;2023-06-22T03:56:26;0.20;;;0.20;;
25715;SDS011;13573;50.936;4.328;2023-06-22T03:58:52;0.00;;;0.00;;
25715;SDS011;13573;50.936;4.328;2023-06-22T04:01:19;0.10;;;0.10;;
25715;SDS011;13573;50.936;4.328;2023-06-22T04:03:46;0.77;;;0.30;;
25715;SDS011;13573;50.936;4.328;2023-06-22T04:06:14;0.00;;;0.00;;
25715;SDS011;13573;50.936;4.328;2023-06-22T04:08:41;0.70;;;0.70;;
25715;SDS011;13573;50.936;4.328;2023-06-22T04:11:08;0.10;;;0.10;;
25715;SDS011;13573;50.936;4.328;2023-06-22T04:13:34;0.40;;;0.27;;
25715;SDS011;13573;50.936;4.328;2023-06-22T04:16:01;0.00;;;0.00;;
25715;SDS011;13573;50.936;4.328;2023-06-22T04:18:28;1.00;;;0.50;;
25715;SDS011;13573;50.936;4.328;2023-06-22T04:20:54;0.00;;;0.00;;
25715;SDS011;13573;50.936;4.328;2023-06-22T04:23:21;0.00;;;0.00;;
25715;SDS011;13573;50.936;4.328;2023-06-22T04:25:47;1.57;;;0.77;;
25715;SDS011;13573;50.936;4.328;2023-06-22T04:28:14;0.50;;;0.47;;
25715;SDS011;13573;50.936;4.328;2023-06-22T04:30:41;0.00;;;0.00;;
25715;SDS011;13573;50.936;4.328;2023-06-22T04:33:09;0.00;;;0.00;;
25715;SDS011;13573;50.936;4.328;2023-06-22T04:35:36;1.30;;;0.97;;
25715;SDS011;13573;50.936;4.328;2023-06-22T04:38:05;0.00;;;0.00;;
25715;SDS011;13573;50.936;4.328;2023-06-22T04:40:31;0.10;;;0.10;;
25715;SDS011;13573;50.936;4.328;2023-06-22T04:42:58;0.13;;;0.13;;
25715;SDS011;13573;50.936;4.328;2023-06-22T04:45:26;0.00;;;0.00;;
25715;SDS011;13573;50.936;4.328;2023-06-22T04:47:53;3.40;;;1.60;;
25715;SDS011;13573;50.936;4.328;2023-06-22T04:50:20;0.00;;;0.00;;
25715;SDS011;13573;50.936;4.328;2023-06-22T04:52:47;0.00;;;0.00;;
25715;SDS011;13573;50.936;4.328;2023-06-22T04:55:14;0.00;;;0.00;;
25715;SDS011;13573;50.936;4.328;2023-06-22T04:57:46;0.00;;;0.00;;
25715;SDS011;13573;50.936;4.328;2023-06-22T05:00:15;0.20;;;0.20;;
25715;SDS011;13573;50.936;4.328;2023-06-22T05:02:45;0.17;;;0.17;;
25715;SDS011;13573;50.936;4.328;2023-06-22T05:05:13;0.00;;;0.00;;
25715;SDS011;13573;50.936;4.328;2023-06-22T05:07:43;0.10;;;0.10;;
25715;SDS011;13573;50.936;4.328;2023-06-22T05:10:13;1.40;;;0.97;;
25715;SDS011;13573;50.936;4.328;2023-06-22T05:12:40;0.00;;;0.00;;
25715;SDS011;13573;50.936;4.328;2023-06-22T05:15:07;0.30;;;0.30;;
25715;SDS011;13573;50.936;4.328;2023-06-22T05:17:35;6.60;;;1.27;;
25715;SDS011;13573;50.936;4.328;2023-06-22T05:20:05;0.00;;;0.00;;
25715;SDS011;13573;50.936;4.328;2023-06-22T05:22:32;0.00;;;0.00;;
25715;SDS011;13573;50.936;4.328;2023-06-22T05:24:59;0.60;;;0.60;;
25715;SDS011;13573;50.936;4.328;2023-06-22T05:27:25;2.83;;;0.87;;
25715;SDS011;13573;50.936;4.328;2023-06-22T05:29:52;0.00;;;0.00;;
25715;SDS011;13573;50.936;4.328;2023-06-22T05:32:19;0.00;;;0.00;;
25715;SDS011;13573;50.936;4.328;2023-06-22T05:34:46;0.00;;;0.00;;
25715;SDS011;13573;50.936;4.328;2023-06-22T05:37:12;1.23;;;0.53;;
25715;SDS011;13573;50.936;4.328;2023-06-22T05:39:39;0.10;;;0.10;;
25715;SDS011;13573;50.936;4.328;2023-06-22T05:42:06;0.07;;;0.07;;
25715;SDS011;13573;50.936;4.328;2023-06-22T05:44:33;0.40;;;0.40;;
25715;SDS011;13573;50.936;4.328;2023-06-22T05:47:01;0.40;;;0.40;;
25715;SDS011;13573;50.936;4.328;2023-06-22T05:49:28;0.00;;;0.00;;
25715;SDS011;13573;50.936;4.328;2023-06-22T05:51:57;0.60;;;0.60;;
25715;SDS011;13573;50.936;4.328;2023-06-22T05:54:23;0.40;;;0.40;;
25715;SDS011;13573;50.936;4.328;2023-06-22T05:56:50;0.23;;;0.23;;
25715;SDS011;13573;50.936;4.328;2023-06-22T05:59:17;3.60;;;0.87;;
25715;SDS011;13573;50.936;4.328;2023-06-22T06:01:43;1.37;;;1.10;;
25715;SDS011;13573;50.936;4.328;2023-06-22T06:04:10;0.13;;;0.10;;
25715;SDS011;13573;50.936;4.328;2023-06-22T06:06:37;0.67;;;0.57;;
25715;SDS011;13573;50.936;4.328;2023-06-22T06:09:04;0.03;;;0.03;;
25715;SDS011;13573;50.936;4.328;2023-06-22T06:11:30;1.07;;;0.97;;
25715;SDS011;13573;50.936;4.328;2023-06-22T06:13:57;6.00;;;1.17;;
25715;SDS011;13573;50.936;4.328;2023-06-22T06:16:24;0.10;;;0.10;;
25715;SDS011;13573;50.936;4.328;2023-06-22T06:18:50;0.20;;;0.20;;
25715;SDS011;13573;50.936;4.328;2023-06-22T06:21:19;1.70;;;0.93;;
25715;SDS011;13573;50.936;4.328;2023-06-22T06:23:45;0.77;;;0.63;;
25715;SDS011;13573;50.936;4.328;2023-06-22T06:26:12;1.17;;;0.53;;
25715;SDS011;13573;50.936;4.328;2023-06-22T06:28:41;0.10;;;0.10;;
25715;SDS011;13573;50.936;4.328;2023-06-22T06:31:09;0.53;;;0.30;;
25715;SDS011;13573;50.936;4.328;2023-06-22T06:33:37;1.87;;;0.90;;
25715;SDS011;13573;50.936;4.328;2023-06-22T06:36:04;1.80;;;0.20;;
25715;SDS011;13573;50.936;4.328;2023-06-22T06:38:31;1.70;;;1.33;;
25715;SDS011;13573;50.936;4.328;2023-06-22T06:40:58;2.13;;;1.40;;
25715;SDS011;13573;50.936;4.328;2023-06-22T06:43:25;0.37;;;0.37;;
25715;SDS011;13573;50.936;4.328;2023-06-22T06:45:52;7.83;;;0.50;;
25715;SDS011;13573;50.936;4.328;2023-06-22T06:48:19;0.00;;;0.00;;
25715;SDS011;13573;50.936;4.328;2023-06-22T06:50:45;0.70;;;0.70;;
25715;SDS011;13573;50.936;4.328;2023-06-22T06:53:12;0.60;;;0.60;;
25715;SDS011;13573;50.936;4.328;2023-06-22T06:55:39;0.37;;;0.37;;
25715;SDS011;13573;50.936;4.328;2023-06-22T06:58:06;0.30;;;0.30;;
25715;SDS011;13573;50.936;4.328;2023-06-22T07:00:34;11.27;;;0.97;;
25715;SDS011;13573;50.936;4.328;2023-06-22T07:03:01;1.10;;;0.50;;
25715;SDS011;13573;50.936;4.328;2023-06-22T07:05:28;5.93;;;1.23;;
25715;SDS011;13573;50.936;4.328;2023-06-22T07:07:54;0.00;;;0.00;;
25715;SDS011;13573;50.936;4.328;2023-06-22T07:10:21;5.83;;;1.60;;
25715;SDS011;13573;50.936;4.328;2023-06-22T07:12:48;10.70;;;2.97;;
25715;SDS011;13573;50.936;4.328;2023-06-22T07:15:14;0.17;;;0.17;;
25715;SDS011;13573;50.936;4.328;2023-06-22T07:17:41;0.10;;;0.10;;
25715;SDS011;13573;50.936;4.328;2023-06-22T07:20:09;0.57;;;0.57;;
25715;SDS011;13573;50.936;4.328;2023-06-22T07:22:38;0.67;;;0.47;;
25715;SDS011;13573;50.936;4.328;2023-06-22T07:25:06;0.90;;;0.87;;
25715;SDS011;13573;50.936;4.328;2023-06-22T07:27:36;5.20;;;2.93;;
25715;SDS011;13573;50.936;4.328;2023-06-22T07:30:04;5.07;;;2.67;;
25715;SDS011;13573;50.936;4.328;2023-06-22T07:32:31;2.47;;;1.23;;
25715;SDS011;13573;50.936;4.328;2023-06-22T07:34:58;4.03;;;2.17;;
25715;SDS011;13573;50.936;4.328;2023-06-22T07:37:25;1.33;;;1.13;;
25715;SDS011;13573;50.936;4.328;2023-06-22T07:39:53;2.93;;;1.67;;
25715;SDS011;13573;50.936;4.328;2023-06-22T07:42:22;3.10;;;1.47;;
25715;SDS011;13573;50.936;4.328;2023-06-22T07:44:50;2.33;;;1.03;;
25715;SDS011;13573;50.936;4.328;2023-06-22T07:47:17;1.30;;;1.20;;
25715;SDS011;13573;50.936;4.328;2023-06-22T07:49:45;1.60;;;1.20;;
25715;SDS011;13573;50.936;4.328;2023-06-22T07:52:13;4.10;;;2.67;;
25715;SDS011;13573;50.936;4.328;2023-06-22T07:54:44;3.37;;;1.37;;
25715;SDS011;13573;50.936;4.328;2023-06-22T07:57:11;2.53;;;1.73;;
25715;SDS011;13573;50.936;4.328;2023-06-22T07:59:38;3.90;;;2.43;;
25715;SDS011;13573;50.936;4.328;2023-06-22T08:02:05;3.23;;;0.73;;
25715;SDS011;13573;50.936;4.328;2023-06-22T08:04:31;0.50;;;0.50;;
25715;SDS011;13573;50.936;4.328;2023-06-22T08:07:00;1.73;;;0.70;;
25715;SDS011;13573;50.936;4.328;2023-06-22T08:09:28;1.20;;;0.73;;
25715;SDS011;13573;50.936;4.328;2023-06-22T08:11:56;1.70;;;1.40;;
25715;SDS011;13573;50.936;4.328;2023-06-22T08:14:23;3.07;;;1.30;;
25715;SDS011;13573;50.936;4.328;2023-06-22T08:16:51;0.70;;;0.70;;
25715;SDS011;13573;50.936;4.328;2023-06-22T08:19:22;3.90;;;1.70;;
25715;SDS011;13573;50.936;4.328;2023-06-22T08:21:50;21.40;;;1.90;;
25715;SDS011;13573;50.936;4.328;2023-06-22T08:24:16;0.10;;;0.10;;
25715;SDS011;13573;50.936;4.328;2023-06-22T08:26:43;2.53;;;1.60;;
25715;SDS011;13573;50.936;4.328;2023-06-22T08:29:10;0.73;;;0.63;;
25715;SDS011;13573;50.936;4.328;2023-06-22T08:31:37;0.60;;;0.60;;
25715;SDS011;13573;50.936;4.328;2023-06-22T08:34:03;2.97;;;1.40;;
25715;SDS011;13573;50.936;4.328;2023-06-22T08:36:30;2.93;;;2.03;;
25715;SDS011;13573;50.936;4.328;2023-06-22T08:38:59;0.63;;;0.60;;
25715;SDS011;13573;50.936;4.328;2023-06-22T08:41:27;0.10;;;0.10;;
25715;SDS011;13573;50.936;4.328;2023-06-22T08:43:53;0.23;;;0.23;;
25715;SDS011;13573;50.936;4.328;2023-06-22T08:46:20;3.53;;;1.80;;
25715;SDS011;13573;50.936;4.328;2023-06-22T08:48:49;2.13;;;1.23;;
25715;SDS011;13573;50.936;4.328;2023-06-22T08:51:16;0.90;;;0.63;;
25715;SDS011;13573;50.936;4.328;2023-06-22T08:53:42;0.20;;;0.10;;
25715;SDS011;13573;50.936;4.328;2023-06-22T08:56:10;7.13;;;2.83;;
25715;SDS011;13573;50.936;4.328;2023-06-22T08:58:37;6.87;;;1.67;;
25715;SDS011;13573;50.936;4.328;2023-06-22T09:01:03;0.20;;;0.20;;
25715;SDS011;13573;50.936;4.328;2023-06-22T09:03:30;0.43;;;0.40;;
25715;SDS011;13573;50.936;4.328;2023-06-22T09:05:58;1.23;;;0.73;;
25715;SDS011;13573;50.936;4.328;2023-06-22T09:08:25;3.30;;;1.30;;
25715;SDS011;13573;50.936;4.328;2023-06-22T09:10:51;4.60;;;2.97;;
25715;SDS011;13573;50.936;4.328;2023-06-22T09:13:18;2.90;;;1.43;;
25715;SDS011;13573;50.936;4.328;2023-06-22T09:15:47;0.00;;;0.00;;
25715;SDS011;13573;50.936;4.328;2023-06-22T09:18:14;1.10;;;0.53;;
25715;SDS011;13573;50.936;4.328;2023-06-22T09:20:41;2.80;;;1.20;;
25715;SDS011;13573;50.936;4.328;2023-06-22T09:23:07;1.47;;;1.37;;
25715;SDS011;13573;50.936;4.328;2023-06-22T09:25:34;5.43;;;1.13;;
25715;SDS011;13573;50.936;4.328;2023-06-22T09:28:00;0.40;;;0.40;;
25715;SDS011;13573;50.936;4.328;2023-06-22T09:30:27;1.83;;;0.93;;
25715;SDS011;13573;50.936;4.328;2023-06-22T09:32:54;0.40;;;0.40;;
25715;SDS011;13573;50.936;4.328;2023-06-22T09:35:20;0.63;;;0.50;;
25715;SDS011;13573;50.936;4.328;2023-06-22T09:37:47;5.30;;;0.93;;
25715;SDS011;13573;50.936;4.328;2023-06-22T09:40:14;0.97;;;0.47;;
25715;SDS011;13573;50.936;4.328;2023-06-22T09:42:42;1.23;;;1.13;;
25715;SDS011;13573;50.936;4.328;2023-06-22T09:45:10;0.07;;;0.07;;
25715;SDS011;13573;50.936;4.328;2023-06-22T09:47:37;2.23;;;0.50;;
25715;SDS011;13573;50.936;4.328;2023-06-22T09:50:04;0.00;;;0.00;;
25715;SDS011;13573;50.936;4.328;2023-06-22T09:52:31;1.60;;;1.23;;
25715;SDS011;13573;50.936;4.328;2023-06-22T09:54:58;2.10;;;1.47;;
25715;SDS011;13573;50.936;4.328;2023-06-22T09:57:24;0.10;;;0.10;;
25715;SDS011;13573;50.936;4.328;2023-06-22T09:59:51;1.87;;;1.13;;
25715;SDS011;13573;50.936;4.328;2023-06-22T10:02:17;10.13;;;3.00;;
25715;SDS011;13573;50.936;4.328;2023-06-22T10:04:44;0.33;;;0.33;;
25715;SDS011;13573;50.936;4.328;2023-06-22T10:07:11;2.63;;;0.50;;
25715;SDS011;13573;50.936;4.328;2023-06-22T10:09:37;1.40;;;1.00;;
25715;SDS011;13573;50.936;4.328;2023-06-22T10:12:04;0.07;;;0.07;;
25715;SDS011;13573;50.936;4.328;2023-06-22T10:14:31;1.70;;;1.37;;
25715;SDS011;13573;50.936;4.328;2023-06-22T10:16:58;0.30;;;0.30;;
25715;SDS011;13573;50.936;4.328;2023-06-22T10:19:24;3.70;;;1.93;;
25715;SDS011;13573;50.936;4.328;2023-06-22T10:21:51;3.27;;;2.17;;
25715;SDS011;13573;50.936;4.328;2023-06-22T10:24:18;0.00;;;0.00;;
25715;SDS011;13573;50.936;4.328;2023-06-22T10:26:45;0.13;;;0.13;;
25715;SDS011;13573;50.936;4.328;2023-06-22T10:29:11;5.30;;;1.50;;
25715;SDS011;13573;50.936;4.328;2023-06-22T10:31:38;0.00;;;0.00;;
25715;SDS011;13573;50.936;4.328;2023-06-22T10:34:05;0.10;;;0.10;;
25715;SDS011;13573;50.936;4.328;2023-06-22T10:36:31;4.43;;;2.90;;
25715;SDS011;13573;50.936;4.328;2023-06-22T10:38:58;2.20;;;1.20;;
25715;SDS011;13573;50.936;4.328;2023-06-22T10:41:27;3.97;;;1.40;;
25715;SDS011;13573;50.936;4.328;2023-06-22T10:43:55;0.47;;;0.47;;
25715;SDS011;13573;50.936;4.328;2023-06-22T10:46:23;4.27;;;2.20;;
25715;SDS011;13573;50.936;4.328;2023-06-22T10:48:53;1.10;;;0.83;;
25715;SDS011;13573;50.936;4.328;2023-06-22T10:51:22;0.10;;;0.10;;
25715;SDS011;13573;50.936;4.328;2023-06-22T10:53:49;2.43;;;0.77;;
25715;SDS011;13573;50.936;4.328;2023-06-22T10:56:17;7.13;;;2.80;;
25715;SDS011;13573;50.936;4.328;2023-06-22T10:58:44;5.27;;;1.57;;
25715;SDS011;13573;50.936;4.328;2023-06-22T11:01:11;2.67;;;1.70;;
25715;SDS011;13573;50.936;4.328;2023-06-22T11:03:38;2.77;;;1.43;;
25715;SDS011;13573;50.936;4.328;2023-06-22T11:06:05;11.33;;;5.30;;
25715;SDS011;13573;50.936;4.328;2023-06-22T11:08:32;5.60;;;2.67;;
25715;SDS011;13573;50.936;4.328;2023-06-22T11:10:58;9.27;;;4.70;;
25715;SDS011;13573;50.936;4.328;2023-06-22T11:13:25;6.03;;;2.33;;
25715;SDS011;13573;50.936;4.328;2023-06-22T11:15:51;5.60;;;2.47;;
25715;SDS011;13573;50.936;4.328;2023-06-22T11:18:18;4.70;;;3.30;;
25715;SDS011;13573;50.936;4.328;2023-06-22T11:20:45;10.27;;;6.03;;
25715;SDS011;13573;50.936;4.328;2023-06-22T11:23:13;4.00;;;2.30;;
25715;SDS011;13573;50.936;4.328;2023-06-22T11:25:39;2.10;;;1.60;;
25715;SDS011;13573;50.936;4.328;2023-06-22T11:28:08;5.57;;;2.57;;
25715;SDS011;13573;50.936;4.328;2023-06-22T11:30:35;1.37;;;0.87;;
25715;SDS011;13573;50.936;4.328;2023-06-22T11:33:02;9.67;;;3.47;;
25715;SDS011;13573;50.936;4.328;2023-06-22T11:35:28;1.03;;;0.77;;
25715;SDS011;13573;50.936;4.328;2023-06-22T11:37:57;8.20;;;5.47;;
25715;SDS011;13573;50.936;4.328;2023-06-22T11:40:24;5.40;;;3.33;;
25715;SDS011;13573;50.936;4.328;2023-06-22T11:42:50;4.93;;;2.47;;
25715;SDS011;13573;50.936;4.328;2023-06-22T11:45:17;1.90;;;1.73;;
25715;SDS011;13573;50.936;4.328;2023-06-22T11:47:44;1.60;;;1.20;;
25715;SDS011;13573;50.936;4.328;2023-06-22T11:50:11;5.53;;;1.70;;
25715;SDS011;13573;50.936;4.328;2023-06-22T11:52:37;8.83;;;3.03;;
25715;SDS011;13573;50.936;4.328;2023-06-22T11:55:04;9.07;;;2.43;;
25715;SDS011;13573;50.936;4.328;2023-06-22T11:57:33;8.30;;;2.30;;
25715;SDS011;13573;50.936;4.328;2023-06-22T12:00:02;3.70;;;0.73;;
25715;SDS011;13573;50.936;4.328;2023-06-22T12:02:44;4.03;;;1.47;;
25715;SDS011;13573;50.936;4.328;2023-06-22T12:05:11;2.27;;;1.17;;
25715;SDS011;13573;50.936;4.328;2023-06-22T12:07:39;1.83;;;1.07;;
25715;SDS011;13573;50.936;4.328;2023-06-22T12:10:06;4.43;;;1.07;;
25715;SDS011;13573;50.936;4.328;2023-06-22T12:12:34;3.27;;;1.77;;
25715;SDS011;13573;50.936;4.328;2023-06-22T12:15:00;4.57;;;2.33;;
25715;SDS011;13573;50.936;4.328;2023-06-22T12:17:29;0.20;;;0.20;;
25715;SDS011;13573;50.936;4.328;2023-06-22T12:19:56;5.60;;;3.30;;
25715;SDS011;13573;50.936;4.328;2023-06-22T12:22:23;3.40;;;1.50;;
25715;SDS011;13573;50.936;4.328;2023-06-22T12:24:50;1.13;;;0.70;;
25715;SDS011;13573;50.936;4.328;2023-06-22T12:27:17;8.23;;;4.67;;
25715;SDS011;13573;50.936;4.328;2023-06-22T12:29:45;1.63;;;1.27;;
25715;SDS011;13573;50.936;4.328;2023-06-22T12:32:13;0.63;;;0.63;;
25715;SDS011;13573;50.936;4.328;2023-06-22T12:34:41;2.77;;;0.90;;
25715;SDS011;13573;50.936;4.328;2023-06-22T12:37:08;1.23;;;1.07;;
25715;SDS011;13573;50.936;4.328;2023-06-22T12:39:35;2.90;;;1.33;;
25715;SDS011;13573;50.936;4.328;2023-06-22T12:42:02;4.93;;;1.83;;
25715;SDS011;13573;50.936;4.328;2023-06-22T12:44:29;6.13;;;2.90;;
25715;SDS011;13573;50.936;4.328;2023-06-22T12:46:56;8.83;;;3.20;;
25715;SDS011;13573;50.936;4.328;2023-06-22T12:49:22;5.83;;;3.20;;
25715;SDS011;13573;50.936;4.328;2023-06-22T12:51:49;4.43;;;2.47;;
25715;SDS011;13573;50.936;4.328;2023-06-22T12:54:16;4.13;;;2.00;;
25715;SDS011;13573;50.936;4.328;2023-06-22T12:56:43;75.90;;;2.90;;
25715;SDS011;13573;50.936;4.328;2023-06-22T12:59:10;33.53;;;7.30;;
25715;SDS011;13573;50.936;4.328;2023-06-22T13:01:37;0.90;;;0.37;;
25715;SDS011;13573;50.936;4.328;2023-06-22T13:04:04;3.87;;;1.23;;
25715;SDS011;13573;50.936;4.328;2023-06-22T13:06:31;1.10;;;0.83;;
25715;SDS011;13573;50.936;4.328;2023-06-22T13:08:57;4.40;;;1.43;;
25715;SDS011;13573;50.936;4.328;2023-06-22T13:11:24;3.77;;;2.13;;
25715;SDS011;13573;50.936;4.328;2023-06-22T13:13:50;11.80;;;2.77;;
25715;SDS011;13573;50.936;4.328;2023-06-22T13:16:17;21.03;;;9.00;;
25715;SDS011;13573;50.936;4.328;2023-06-22T13:18:47;7.27;;;4.43;;
25715;SDS011;13573;50.936;4.328;2023-06-22T13:21:14;7.53;;;2.77;;
25715;SDS011;13573;50.936;4.328;2023-06-22T13:23:41;4.77;;;2.93;;
25715;SDS011;13573;50.936;4.328;2023-06-22T13:26:07;3.13;;;2.17;;
25715;SDS011;13573;50.936;4.328;2023-06-22T13:28:34;5.23;;;3.23;;
25715;SDS011;13573;50.936;4.328;2023-06-22T13:31:00;2.97;;;1.93;;
25715;SDS011;13573;50.936;4.328;2023-06-22T13:33:27;1.37;;;1.20;;
25715;SDS011;13573;50.936;4.328;2023-06-22T13:35:54;1.80;;;1.53;;
25715;SDS011;13573;50.936;4.328;2023-06-22T13:38:20;0.70;;;0.63;;
25715;SDS011;13573;50.936;4.328;2023-06-22T13:40:48;4.57;;;2.10;;
25715;SDS011;13573;50.936;4.328;2023-06-22T13:43:15;3.33;;;1.80;;
25715;SDS011;13573;50.936;4.328;2023-06-22T13:45:43;15.33;;;2.97;;
25715;SDS011;13573;50.936;4.328;2023-06-22T13:48:09;3.47;;;1.33;;
25715;SDS011;13573;50.936;4.328;2023-06-22T13:50:36;3.20;;;1.90;;
25715;SDS011;13573;50.936;4.328;2023-06-22T13:53:03;7.00;;;3.40;;
25715;SDS011;13573;50.936;4.328;2023-06-22T13:55:29;3.50;;;2.23;;
25715;SDS011;13573;50.936;4.328;2023-06-22T13:57:56;7.17;;;2.37;;
25715;SDS011;13573;50.936;4.328;2023-06-22T14:00:23;1.50;;;1.40;;
25715;SDS011;13573;50.936;4.328;2023-06-22T14:02:50;16.50;;;4.23;;
25715;SDS011;13573;50.936;4.328;2023-06-22T14:05:17;3.97;;;1.50;;
25715;SDS011;13573;50.936;4.328;2023-06-22T14:07:43;4.23;;;2.10;;
25715;SDS011;13573;50.936;4.328;2023-06-22T14:10:11;1.23;;;0.80;;
25715;SDS011;13573;50.936;4.328;2023-06-22T14:12:38;12.17;;;4.90;;
25715;SDS011;13573;50.936;4.328;2023-06-22T14:15:05;4.27;;;1.63;;
25715;SDS011;13573;50.936;4.328;2023-06-22T14:17:33;2.07;;;1.57;;
25715;SDS011;13573;50.936;4.328;2023-06-22T14:19:59;7.03;;;3.33;;
25715;SDS011;13573;50.936;4.328;2023-06-22T14:22:26;6.77;;;3.73;;
25715;SDS011;13573;50.936;4.328;2023-06-22T14:24:55;6.03;;;3.30;;
25715;SDS011;13573;50.936;4.328;2023-06-22T14:27:24;9.60;;;4.17;;
25715;SDS011;13573;50.936;4.328;2023-06-22T14:29:51;14.00;;;2.70;;
25715;SDS011;13573;50.936;4.328;2023-06-22T14:32:18;12.50;;;3.00;;
25715;SDS011;13573;50.936;4.328;2023-06-22T14:34:44;5.83;;;3.33;;
25715;SDS011;13573;50.936;4.328;2023-06-22T14:37:11;1.07;;;0.90;;
25715;SDS011;13573;50.936;4.328;2023-06-22T14:39:38;6.63;;;3.40;;
25715;SDS011;13573;50.936;4.328;2023-06-22T14:42:06;1.87;;;1.43;;
25715;SDS011;13573;50.936;4.328;2023-06-22T14:44:32;11.50;;;5.17;;
25715;SDS011;13573;50.936;4.328;2023-06-22T14:46:59;17.47;;;9.13;;